Time;durP1;ratioP1;P1;durP2;ratioP2;P2;SDS_P1;SDS_P2;PMS_P1;PMS_P2;Temp;Humidity;BMP_temperature;BMP_pressure;BME280_temperature;BME280_humidity;BME280_pressure;Samples;Min_cycle;Max_cycle;Signal;HPM_P1;HPM_P2
2022/09/14 00:01:35;;;;;;;;;;;;;;;17.18;60.13;99215.09;4456622;32;20339;-90
2022/09/14 00:04:02;;;;;;;;;;;;;;;17.24;60.13;99208.56;4470137;32;20048;-90
2022/09/14 00:06:27;;;;;;;;;;;;;;;17.07;60.12;99217.59;4471505;32;20328;-92
2022/09/14 00:08:53;;;;;;;;;;;;;;;16.88;60.12;99220.62;4456913;32;19985;-90
2022/09/14 00:11:18;;;;;;;;;;;;;;;16.82;60.11;99218.41;4457090;32;20033;-92
2022/09/14 00:13:44;;;;;;;;;;;;;;;16.71;60.11;99217.41;4470411;32;19995;-93
2022/09/14 00:16:10;;;;;;;;;;;;;;;16.54;60.09;99223.72;4457571;32;20103;-92
2022/09/14 00:18:36;;;;;;;;;;;;;;;16.67;60.09;99218.56;4458083;32;20666;-92
2022/09/14 00:21:01;;;;;;;;;;;;;;;16.64;60.10;99216.94;4457516;32;20019;-93
2022/09/14 00:23:27;;;;;;;;;;;;;;;16.66;60.10;99212.47;4471066;32;19995;-92
2022/09/14 00:25:52;;;;;;;;;;;;;;;16.46;60.09;99205.00;4457604;32;20318;-93
2022/09/14 00:28:17;;;;;;;;;;;;;;;16.43;60.08;99211.28;4457825;32;20067;-92
2022/09/14 00:30:43;;;;;;;;;;;;;;;16.45;60.09;99211.19;4457821;32;20325;-92
2022/09/14 00:33:08;;;;;;;;;;;;;;;16.46;60.09;99210.25;4457645;32;19981;-93
2022/09/14 00:35:34;;;;;;;;;;;;;;;16.43;60.09;99210.44;4457872;32;19981;-93
2022/09/14 00:38:02;;;;;;;;;;;;;;;16.54;60.09;99207.94;4458027;32;20037;-94
2022/09/14 00:40:46;;;;;;;;;;;;;;;16.59;60.10;99216.41;4457302;32;20371;-92
2022/09/14 00:43:12;;;;;;;;;;;;;;;16.56;60.10;99216.56;4458098;32;19973;-93
2022/09/14 00:45:38;;;;;;;;;;;;;;;16.48;60.09;99217.09;4457805;32;19985;-93
2022/09/14 00:48:03;;;;;;;;;;;;;;;16.43;60.08;99213.06;4457809;32;20001;-92
2022/09/14 00:51:09;;;;;;;;;;;;;;;16.51;60.09;99202.91;4457604;32;19996;-93
2022/09/14 00:53:34;;;;;;;;;;;;;;;16.42;60.09;99206.13;4471426;32;19972;-95
2022/09/14 00:56:00;;;;;;;;;;;;;;;16.41;60.09;99193.94;4460156;32;20058;-96
2022/09/14 00:58:25;;;;;;;;;;;;;;;16.16;60.07;99185.00;4459806;32;19981;-95
2022/09/14 01:00:50;;;;;;;;;;;;;;;16.22;60.07;99186.41;4458268;32;20284;-90
2022/09/14 01:03:18;;;;;;;;;;;;;;;16.30;60.08;99185.91;4471174;32;19994;-92
2022/09/14 01:05:50;;;;;;;;;;;;;;;16.26;60.08;99187.88;4461805;32;19989;-93
2022/09/14 01:08:21;;;;;;;;;;;;;;;16.21;60.08;99185.56;4471307;32;20378;-90
2022/09/14 01:11:08;;;;;;;;;;;;;;;16.23;60.08;99188.09;4457118;32;19996;-91
2022/09/14 01:14:12;;;;;;;;;;;;;;;16.06;60.07;99189.16;4456818;32;19976;-92
2022/09/14 01:16:48;;;;;;;;;;;;;;;15.91;60.06;99187.50;4425225;32;20001;-91
2022/09/14 01:19:22;;;;;;;;;;;;;;;16.10;60.07;99195.91;4424877;32;20345;-92
2022/09/14 01:21:48;;;;;;;;;;;;;;;15.93;60.07;99181.22;4449696;32;19992;-90
2022/09/14 01:24:19;;;;;;;;;;;;;;;15.86;60.06;99181.72;4469399;32;19964;-91
2022/09/14 01:26:44;;;;;;;;;;;;;;;15.70;60.05;99176.56;4469378;32;20345;-93
2022/09/14 01:29:13;;;;;;;;;;;;;;;15.78;60.05;99183.94;4470083;32;20010;-93
2022/09/14 01:31:50;;;;;;;;;;;;;;;15.77;60.05;99185.72;4468887;32;20011;-92
2022/09/14 01:34:18;;;;;;;;;;;;;;;15.79;60.05;99177.75;4469448;32;20040;-91
2022/09/14 01:36:45;;;;;;;;;;;;;;;15.71;60.05;99178.25;4457738;32;20305;-93
2022/09/14 01:39:10;;;;;;;;;;;;;;;15.68;60.05;99175.81;4457058;32;20360;-91
2022/09/14 01:41:35;;;;;;;;;;;;;;;15.72;60.05;99173.84;4457019;32;20030;-88
2022/09/14 01:44:21;;;;;;;;;;;;;;;15.88;60.06;99171.97;4469175;32;20223;-89
2022/09/14 01:46:47;;;;;;;;;;;;;;;15.87;60.06;99162.41;4469052;32;20816;-91
2022/09/14 01:49:12;;;;;;;;;;;;;;;15.78;60.05;99165.59;4456787;32;20044;-91
2022/09/14 01:51:39;;;;;;;;;;;;;;;15.69;60.04;99161.75;4469632;32;20015;-92
2022/09/14 01:54:09;;;;;;;;;;;;;;;15.81;60.05;99154.87;4457076;32;19969;-95
2022/09/14 01:56:37;;;;;;;;;;;;;;;15.77;60.04;99146.38;4457066;32;19977;-91
2022/09/14 01:59:02;;;;;;;;;;;;;;;15.78;60.05;99147.22;4456323;32;20012;-90
2022/09/14 02:01:35;;;;;;;;;;;;;;;15.74;60.05;99138.69;4468796;32;20334;-90
2022/09/14 02:04:02;;;;;;;;;;;;;;;15.64;60.05;99140.22;4456591;32;20363;-92
2022/09/14 02:06:29;;;;;;;;;;;;;;;15.70;60.04;99123.25;4456268;32;20553;-92
2022/09/14 02:08:54;;;;;;;;;;;;;;;15.64;60.05;99137.59;4456866;32;20040;-91
2022/09/14 02:11:19;;;;;;;;;;;;;;;15.55;60.04;99127.62;4456221;32;20019;-92
2022/09/14 02:13:44;;;;;;;;;;;;;;;15.51;60.03;99121.72;4456070;32;19991;-91
2022/09/14 02:16:10;;;;;;;;;;;;;;;15.65;60.05;99123.53;4455534;32;21642;-91
2022/09/14 02:18:36;;;;;;;;;;;;;;;15.69;60.05;99116.31;4456282;32;20024;-90
2022/09/14 02:21:03;;;;;;;;;;;;;;;15.54;60.04;99112.81;4456001;32;19996;-90
2022/09/14 02:23:28;;;;;;;;;;;;;;;15.57;60.04;99108.22;4457069;32;19981;-91
2022/09/14 02:25:57;;;;;;;;;;;;;;;15.47;60.04;99115.00;4458189;32;20005;-91
2022/09/14 02:28:22;;;;;;;;;;;;;;;15.54;60.04;99105.81;4458817;32;19989;-91
2022/09/14 02:30:56;;;;;;;;;;;;;;;15.53;60.03;99105.91;4458999;32;20439;-91
2022/09/14 02:33:26;;;;;;;;;;;;;;;15.58;60.04;99103.81;4473805;32;20048;-91
2022/09/14 02:35:52;;;;;;;;;;;;;;;15.49;60.04;99102.63;4465434;32;19968;-90
2022/09/14 02:38:30;;;;;;;;;;;;;;;15.46;60.03;99108.06;4458708;32;19992;-90
2022/09/14 02:41:11;;;;;;;;;;;;;;;15.48;60.04;99103.56;4470338;32;20000;-91
2022/09/14 02:44:11;;;;;;;;;;;;;;;15.36;60.03;99099.91;4470214;32;20032;-91
2022/09/14 02:46:39;;;;;;;;;;;;;;;15.25;60.03;99102.37;4438944;32;20008;-92
2022/09/14 02:49:06;;;;;;;;;;;;;;;15.47;60.04;99104.50;4465234;32;20018;-91
2022/09/14 02:51:51;;;;;;;;;;;;;;;15.53;60.03;99096.25;4470305;32;19996;-92
2022/09/14 02:54:17;;;;;;;;;;;;;;;15.59;60.04;99095.03;4470917;32;19993;-92
2022/09/14 02:56:43;;;;;;;;;;;;;;;15.75;60.05;99097.56;4457490;32;19995;-92
2022/09/14 02:59:08;;;;;;;;;;;;;;;15.68;60.04;99097.09;4470620;32;20000;-91
2022/09/14 03:01:34;;;;;;;;;;;;;;;15.64;60.05;99093.00;4470297;32;20030;-92
2022/09/14 03:03:59;;;;;;;;;;;;;;;15.70;60.04;99078.66;4470874;32;20300;-91
2022/09/14 03:06:24;;;;;;;;;;;;;;;15.74;60.05;99078.34;4470657;32;20007;-89
2022/09/14 03:08:50;;;;;;;;;;;;;;;15.75;60.05;99081.81;4457271;32;20008;-91
2022/09/14 03:11:15;;;;;;;;;;;;;;;15.83;60.05;99079.53;4457424;32;20310;-91
2022/09/14 03:13:40;;;;;;;;;;;;;;;15.85;60.05;99082.91;4457111;32;20508;-90
2022/09/14 03:16:09;;;;;;;;;;;;;;;15.85;60.05;99083.75;4457196;32;20026;-90
2022/09/14 03:18:35;;;;;;;;;;;;;;;15.90;60.05;99076.44;4457156;32;20367;-89
2022/09/14 03:21:01;;;;;;;;;;;;;;;15.91;60.05;99077.28;4455149;32;19997;-89
2022/09/14 03:23:26;;;;;;;;;;;;;;;16.05;60.07;99082.44;4457083;32;19988;-89
2022/09/14 03:25:51;;;;;;;;;;;;;;;16.04;60.06;99082.56;4456903;32;20651;-91
2022/09/14 03:28:17;;;;;;;;;;;;;;;15.95;60.06;99074.34;4470130;32;19984;-92
2022/09/14 03:30:42;;;;;;;;;;;;;;;16.00;60.06;99078.44;4457624;32;20016;-91
2022/09/14 03:33:07;;;;;;;;;;;;;;;16.00;60.07;99066.16;4456463;32;20368;-90
2022/09/14 03:35:32;;;;;;;;;;;;;;;16.05;60.07;99058.81;4469498;32;19981;-93
2022/09/14 03:37:58;;;;;;;;;;;;;;;16.10;60.07;99066.44;4457267;32;20000;-89
2022/09/14 03:40:23;;;;;;;;;;;;;;;16.12;60.07;99068.00;4456575;32;20041;-90
2022/09/14 03:42:49;;;;;;;;;;;;;;;16.24;60.08;99072.44;4457078;32;20347;-89
2022/09/14 03:45:14;;;;;;;;;;;;;;;16.16;60.06;99081.78;4457243;32;20036;-91
2022/09/14 03:47:40;;;;;;;;;;;;;;;16.22;60.07;99084.81;4457009;32;20349;-90
2022/09/14 03:50:06;;;;;;;;;;;;;;;16.10;60.07;99080.41;4456802;32;20000;-88
2022/09/14 03:52:32;;;;;;;;;;;;;;;16.16;60.06;99076.53;4471006;32;20037;-90
2022/09/14 03:54:57;;;;;;;;;;;;;;;16.27;60.08;99072.22;4457215;32;20018;-89
2022/09/14 03:57:22;;;;;;;;;;;;;;;16.12;60.07;99080.28;4456793;32;20008;-88
2022/09/14 03:59:47;;;;;;;;;;;;;;;16.17;60.07;99083.44;4457366;32;20353;-91
2022/09/14 04:02:13;;;;;;;;;;;;;;;16.36;60.08;99075.22;4458200;32;19995;-91
2022/09/14 04:04:38;;;;;;;;;;;;;;;16.24;60.08;99072.44;4462785;32;19995;-91
2022/09/14 04:07:03;;;;;;;;;;;;;;;16.24;60.09;99072.44;4458303;32;20012;-91
2022/09/14 04:09:28;;;;;;;;;;;;;;;16.30;60.07;99075.59;4456865;32;19999;-90
2022/09/14 04:11:54;;;;;;;;;;;;;;;16.22;60.07;99076.94;4456349;32;19995;-91
2022/09/14 04:14:20;;;;;;;;;;;;;;;16.34;60.08;99072.69;4469488;32;20353;-90
2022/09/14 04:16:46;;;;;;;;;;;;;;;16.30;60.07;99063.31;4457127;32;20019;-90
2022/09/14 04:19:11;;;;;;;;;;;;;;;16.24;60.08;99067.19;4457134;32;19993;-88
2022/09/14 04:21:36;;;;;;;;;;;;;;;16.40;60.09;99053.88;4469606;32;19980;-91
2022/09/14 04:24:02;;;;;;;;;;;;;;;16.31;60.07;99051.00;4470357;32;20036;-88
2022/09/14 04:26:27;;;;;;;;;;;;;;;16.47;60.09;99049.06;4471059;32;20017;-90
2022/09/14 04:28:53;;;;;;;;;;;;;;;16.51;60.09;99051.38;4456860;32;20010;-89
2022/09/14 04:31:19;;;;;;;;;;;;;;;16.44;60.08;99046.63;4471022;32;19968;-91
2022/09/14 04:33:44;;;;;;;;;;;;;;;16.25;60.08;99041.75;4469815;32;20096;-91
2022/09/14 04:36:10;;;;;;;;;;;;;;;16.48;60.09;99040.22;4468461;32;20062;-90
2022/09/14 04:38:36;;;;;;;;;;;;;;;16.44;60.08;99044.84;4457194;32;20009;-91
2022/09/14 04:41:04;;;;;;;;;;;;;;;16.60;60.09;99043.81;4456820;32;19991;-91
2022/09/14 04:43:30;;;;;;;;;;;;;;;16.58;60.09;99038.69;4456805;32;20001;-90
2022/09/14 04:46:00;;;;;;;;;;;;;;;16.66;60.10;99031.13;4468974;32;20023;-90
2022/09/14 04:48:25;;;;;;;;;;;;;;;16.57;60.09;99018.59;4469623;32;19997;-91
2022/09/14 04:50:50;;;;;;;;;;;;;;;16.57;60.09;99019.44;4469036;32;20433;-91
2022/09/14 04:53:15;;;;;;;;;;;;;;;16.61;60.09;99014.81;4456694;32;20030;-91
2022/09/14 04:55:40;;;;;;;;;;;;;;;16.67;60.10;99017.06;4456448;32;19980;-92
2022/09/14 04:58:09;;;;;;;;;;;;;;;16.74;60.10;99022.72;4455627;32;20011;-91
2022/09/14 05:00:34;;;;;;;;;;;;;;;16.69;60.09;99016.94;4456760;32;20003;-91
2022/09/14 05:03:00;;;;;;;;;;;;;;;16.84;60.10;99013.28;4449121;32;19985;-91
2022/09/14 05:05:25;;;;;;;;;;;;;;;16.91;60.11;99017.16;4454273;32;20044;-89
2022/09/14 05:07:51;;;;;;;;;;;;;;;17.03;60.12;99018.06;4455231;32;20246;-90
2022/09/14 05:10:16;;;;;;;;;;;;;;;17.25;60.13;99020.88;4455079;32;19985;-90
2022/09/14 05:12:41;;;;;;;;;;;;;;;17.34;60.13;99017.59;4468062;32;19981;-91
2022/09/14 05:15:07;;;;;;;;;;;;;;;17.33;60.13;99025.59;4468038;32;20042;-91
2022/09/14 05:17:34;;;;;;;;;;;;;;;17.35;60.13;99039.47;4469299;32;20001;-91
2022/09/14 05:19:59;;;;;;;;;;;;;;;17.45;60.13;99036.06;4455498;32;19981;-90
2022/09/14 05:22:24;;;;;;;;;;;;;;;17.26;60.13;99038.31;4455347;32;19980;-91
2022/09/14 05:24:49;;;;;;;;;;;;;;;17.32;60.13;99035.28;4455153;32;20070;-89
2022/09/14 05:27:15;;;;;;;;;;;;;;;17.56;60.15;99026.59;4467855;32;21214;-89
2022/09/14 05:29:40;;;;;;;;;;;;;;;17.63;60.15;99017.28;4469511;32;20253;-90
2022/09/14 05:32:05;;;;;;;;;;;;;;;17.72;60.16;99008.75;4471710;32;19965;-90
2022/09/14 05:34:30;;;;;;;;;;;;;;;17.68;60.15;98994.97;4472833;32;19977;-89
2022/09/14 05:36:56;;;;;;;;;;;;;;;17.75;60.15;98998.84;4458972;32;19980;-88
2022/09/14 05:39:21;;;;;;;;;;;;;;;17.77;60.16;99004.84;4471310;32;19992;-88
2022/09/14 05:41:50;;;;;;;;;;;;;;;17.85;60.15;99019.22;4455332;32;20492;-90
2022/09/14 05:44:15;;;;;;;;;;;;;;;17.83;60.15;99015.88;4456362;32;20381;-90
2022/09/14 05:46:40;;;;;;;;;;;;;;;17.94;60.17;99006.22;4458306;32;20034;-91
2022/09/14 05:49:05;;;;;;;;;;;;;;;18.19;60.18;99002.59;4465484;32;20343;-89
2022/09/14 05:51:31;;;;;;;;;;;;;;;18.21;60.18;99018.28;4454672;32;19977;-91
2022/09/14 05:53:56;;;;;;;;;;;;;;;18.20;60.18;99021.88;4454334;32;20028;-90
2022/09/14 05:56:22;;;;;;;;;;;;;;;18.36;60.18;99025.03;4469088;32;19992;-89
2022/09/14 05:58:48;;;;;;;;;;;;;;;18.58;60.20;99022.47;4467432;32;20363;-90
2022/09/14 06:01:14;;;;;;;;;;;;;;;18.70;60.21;99008.38;4454570;32;19976;-90
2022/09/14 06:03:39;;;;;;;;;;;;;;;18.93;60.22;99009.25;4467993;32;20325;-90
2022/09/14 06:06:05;;;;;;;;;;;;;;;19.11;60.22;99009.56;4454663;32;20004;-89
2022/09/14 06:08:30;;;;;;;;;;;;;;;19.42;60.24;98999.25;4454700;32;20313;-89
2022/09/14 06:10:55;;;;;;;;;;;;;;;19.45;60.24;99001.63;4467641;32;19985;-89
2022/09/14 06:13:22;;;;;;;;;;;;;;;19.07;60.22;98997.59;4454577;32;20008;-91
2022/09/14 06:15:47;;;;;;;;;;;;;;;19.34;60.24;98989.28;4467808;32;19996;-90
2022/09/14 06:18:12;;;;;;;;;;;;;;;19.43;60.24;98988.56;4454817;32;20270;-90
2022/09/14 06:20:38;;;;;;;;;;;;;;;19.36;60.24;98987.34;4454925;32;20236;-90
2022/09/14 06:23:03;;;;;;;;;;;;;;;19.70;60.26;98998.72;4468014;32;20018;-89
2022/09/14 06:25:29;;;;;;;;;;;;;;;19.97;60.27;98997.41;4454539;32;20310;-90
2022/09/14 06:27:55;;;;;;;;;;;;;;;19.66;60.26;99004.38;4454819;32;19957;-90
2022/09/14 06:30:20;;;;;;;;;;;;;;;19.87;60.27;98992.91;4467810;32;19961;-89
2022/09/14 06:32:45;;;;;;;;;;;;;;;19.92;60.26;99001.28;4467851;32;20333;-90
2022/09/14 06:35:10;;;;;;;;;;;;;;;20.08;60.27;99002.63;4454637;32;19996;-90
2022/09/14 06:37:36;;;;;;;;;;;;;;;20.37;60.29;99008.16;4467416;32;19984;-91
2022/09/14 06:40:01;;;;;;;;;;;;;;;20.30;60.29;99033.41;4468983;32;20013;-89
2022/09/14 06:42:27;;;;;;;;;;;;;;;20.44;60.30;99043.69;4454484;32;20296;-89
2022/09/14 06:44:53;;;;;;;;;;;;;;;20.48;60.30;99034.53;4454430;32;20011;-89
2022/09/14 06:47:18;;;;;;;;;;;;;;;20.21;60.28;99038.50;4454453;32;21303;-90
2022/09/14 06:49:43;;;;;;;;;;;;;;;20.05;60.27;99040.72;4455376;32;20003;-90
2022/09/14 06:52:08;;;;;;;;;;;;;;;20.03;60.28;99047.09;4468416;32;20000;-90
2022/09/14 06:54:34;;;;;;;;;;;;;;;19.99;60.27;99046.50;4455453;32;20071;-89
2022/09/14 06:56:59;;;;;;;;;;;;;;;20.15;60.28;99032.87;4454790;32;26250;-88
2022/09/14 06:59:24;;;;;;;;;;;;;;;20.28;60.29;99019.47;4467742;32;24911;-90
2022/09/14 07:01:49;;;;;;;;;;;;;;;20.08;60.27;99021.12;4463849;32;20028;-89
2022/09/14 07:04:15;;;;;;;;;;;;;;;19.85;60.26;99012.44;4471946;32;19991;-90
2022/09/14 07:06:42;;;;;;;;;;;;;;;19.78;60.27;99006.00;4455358;32;19997;-90
2022/09/14 07:09:07;;;;;;;;;;;;;;;19.90;60.27;99000.56;4455352;32;20000;-90
2022/09/14 07:11:32;;;;;;;;;;;;;;;19.69;60.26;99002.31;4470097;32;19985;-90
2022/09/14 07:13:58;;;;;;;;;;;;;;;19.66;60.26;99005.22;4457655;32;19989;-90
2022/09/14 07:16:23;;;;;;;;;;;;;;;19.78;60.27;99020.03;4470507;32;20017;-90
2022/09/14 07:18:51;;;;;;;;;;;;;;;19.73;60.26;99032.78;4457489;32;19969;-89
2022/09/14 07:21:17;;;;;;;;;;;;;;;19.81;60.26;99027.72;4470607;32;19988;-90
2022/09/14 07:23:43;;;;;;;;;;;;;;;19.90;60.27;99026.13;4457483;32;20332;-91
2022/09/14 07:26:09;;;;;;;;;;;;;;;20.03;60.28;99020.66;4457315;32;19991;-90
2022/09/14 07:28:34;;;;;;;;;;;;;;;20.12;60.28;99022.56;4457089;32;19977;-90
2022/09/14 07:31:00;;;;;;;;;;;;;;;20.28;60.29;99024.75;4470468;32;20042;-91
2022/09/14 07:33:25;;;;;;;;;;;;;;;20.29;60.29;99016.69;4470753;32;19981;-90
2022/09/14 07:35:51;;;;;;;;;;;;;;;20.37;60.29;99021.38;4457287;32;19992;-91
2022/09/14 07:38:17;;;;;;;;;;;;;;;20.26;60.29;99024.06;4470530;32;20041;-91
2022/09/14 07:40:43;;;;;;;;;;;;;;;20.49;60.31;99025.63;4455536;32;20009;-89
2022/09/14 07:43:08;;;;;;;;;;;;;;;20.46;60.29;99017.97;4456075;32;19980;-89
2022/09/14 07:45:36;;;;;;;;;;;;;;;20.71;60.32;99006.97;4456193;32;19999;-90
2022/09/14 07:48:02;;;;;;;;;;;;;;;20.64;60.31;99000.56;4455703;32;19973;-89
2022/09/14 07:50:27;;;;;;;;;;;;;;;20.59;60.30;98999.28;4470367;32;20014;-90
2022/09/14 07:52:52;;;;;;;;;;;;;;;20.68;60.31;99009.06;4469242;32;20014;-90
2022/09/14 07:55:18;;;;;;;;;;;;;;;20.66;60.31;98995.97;4469096;32;19984;-91
2022/09/14 07:57:43;;;;;;;;;;;;;;;20.56;60.31;98999.50;4456032;32;20306;-90
2022/09/14 08:00:09;;;;;;;;;;;;;;;20.75;60.31;99004.91;4456218;32;20012;-90
2022/09/14 08:02:35;;;;;;;;;;;;;;;20.88;60.33;98989.66;4456455;32;20019;-92
2022/09/14 08:05:00;;;;;;;;;;;;;;;20.93;60.32;98973.41;4456364;32;19989;-90
2022/09/14 08:07:26;;;;;;;;;;;;;;;20.93;60.32;98962.81;4470595;32;20008;-90
2022/09/14 08:09:51;;;;;;;;;;;;;;;21.01;60.34;98963.81;4456501;32;20363;-91
2022/09/14 08:12:16;;;;;;;;;;;;;;;21.15;60.33;98968.75;4456366;32;19997;-90
2022/09/14 08:14:41;;;;;;;;;;;;;;;21.26;60.35;98978.41;4456204;32;19989;-89
2022/09/14 08:17:09;;;;;;;;;;;;;;;21.12;60.34;98973.47;4456823;32;20030;-93
2022/09/14 08:19:34;;;;;;;;;;;;;;;21.09;60.34;98973.75;4456189;32;19992;-88
2022/09/14 08:21:59;;;;;;;;;;;;;;;21.24;60.33;98975.06;4468958;32;20027;-90
2022/09/14 08:24:24;;;;;;;;;;;;;;;21.31;60.34;98978.00;4456527;32;19976;-90
2022/09/14 08:26:50;;;;;;;;;;;;;;;21.40;60.34;98974.53;4455951;32;21208;-91
2022/09/14 08:29:15;;;;;;;;;;;;;;;21.55;60.35;98970.53;4456338;32;19985;-90
2022/09/14 08:31:42;;;;;;;;;;;;;;;21.80;60.37;98955.09;4475216;32;19980;-91
2022/09/14 08:34:07;;;;;;;;;;;;;;;21.96;60.39;98942.09;4456440;32;20091;-90
2022/09/14 08:36:33;;;;;;;;;;;;;;;22.12;60.39;98941.56;4456404;32;19985;-89
2022/09/14 08:38:59;;;;;;;;;;;;;;;22.17;60.38;98942.78;4456234;32;20011;-89
2022/09/14 08:41:27;;;;;;;;;;;;;;;22.27;60.40;98945.44;4469099;32;20000;-91
2022/09/14 08:43:53;;;;;;;;;;;;;;;22.59;60.41;98953.84;4470504;32;19981;-91
2022/09/14 08:46:38;;;;;;;;;;;;;;;22.81;60.42;98952.69;4469120;32;19988;-90
2022/09/14 08:49:07;;;;;;;;;;;;;;;22.98;60.43;98945.78;4469995;32;20042;-92
2022/09/14 08:51:33;;;;;;;;;;;;;;;23.24;60.44;98957.37;4456672;32;20028;-90
2022/09/14 08:53:58;;;;;;;;;;;;;;;23.41;60.45;98950.41;4455772;32;19993;-91
2022/09/14 08:56:24;;;;;;;;;;;;;;;23.54;60.46;98945.56;4455730;32;19977;-92
2022/09/14 08:58:49;;;;;;;;;;;;;;;23.68;60.47;98946.06;4470029;32;19984;-90
2022/09/14 09:01:34;;;;;;;;;;;;;;;23.87;60.47;98943.25;4471391;32;19981;-91
2022/09/14 09:04:12;;;;;;;;;;;;;;;23.97;60.48;98938.69;4471194;32;20324;-91
2022/09/14 09:06:56;;;;;;;;;;;;;;;24.15;60.49;98933.34;4469893;32;20002;-89
2022/09/14 09:09:21;;;;;;;;;;;;;;;24.14;60.49;98940.50;4470230;32;20083;-91
2022/09/14 09:11:47;;;;;;;;;;;;;;;24.23;60.50;98930.75;4471156;32;19981;-91
2022/09/14 09:14:17;;;;;;;;;;;;;;;24.21;60.50;98932.72;4456586;32;20048;-90
2022/09/14 09:16:43;;;;;;;;;;;;;;;24.33;60.50;98938.62;4470990;32;19982;-90
2022/09/14 09:19:10;;;;;;;;;;;;;;;24.57;60.51;98951.25;4469747;32;20041;-91
2022/09/14 09:21:38;;;;;;;;;;;;;;;24.77;60.53;98953.53;4469582;32;19988;-91
2022/09/14 09:24:09;;;;;;;;;;;;;;;24.98;60.54;98954.97;4456515;32;19997;-91
2022/09/14 09:26:34;;;;;;;;;;;;;;;25.11;60.55;98958.06;4469700;32;19977;-89
2022/09/14 09:29:00;;;;;;;;;;;;;;;25.29;60.55;98961.44;4456212;32;20036;-92
2022/09/14 09:31:32;;;;;;;;;;;;;;;25.42;60.56;98965.47;4469657;32;19993;-90
2022/09/14 09:33:57;;;;;;;;;;;;;;;25.49;60.56;98964.66;4468969;32;19991;-91
2022/09/14 09:36:23;;;;;;;;;;;;;;;25.62;60.57;98962.38;4468503;32;19969;-89
2022/09/14 09:38:48;;;;;;;;;;;;;;;25.53;60.56;98971.31;4469934;32;20231;-91
2022/09/14 09:41:21;;;;;;;;;;;;;;;25.76;60.56;98966.22;4455442;32;19989;-91
2022/09/14 09:43:59;;;;;;;;;;;;;;;25.81;60.58;98965.75;4455903;32;19984;-89
2022/09/14 09:46:26;;;;;;;;;;;;;;;25.82;60.57;98970.94;4469068;32;19992;-90
2022/09/14 09:48:51;;;;;;;;;;;;;;;25.72;60.57;98958.72;4456034;32;20048;-91
2022/09/14 09:51:22;;;;;;;;;;;;;;;25.96;60.58;98953.41;4468704;32;19989;-89
2022/09/14 09:53:50;;;;;;;;;;;;;;;26.00;60.58;98952.06;4468986;32;20047;-90
2022/09/14 09:56:25;;;;;;;;;;;;;;;26.09;60.58;98955.59;4456055;32;20012;-91
2022/09/14 09:58:52;;;;;;;;;;;;;;;26.14;60.59;98961.25;4458040;32;19988;-91
2022/09/14 10:01:19;;;;;;;;;;;;;;;25.93;60.59;98959.91;4474565;32;20036;-89
2022/09/14 10:03:58;;;;;;;;;;;;;;;25.74;60.58;98970.06;4470201;32;20337;-89
2022/09/14 10:06:23;;;;;;;;;;;;;;;25.94;60.59;98972.25;4469936;32;19968;-91
2022/09/14 10:08:48;;;;;;;;;;;;;;;25.66;60.57;98987.69;4468806;32;20046;-89
2022/09/14 10:11:30;;;;;;;;;;;;;;;26.06;60.59;98987.94;4455707;32;20039;-90
2022/09/14 10:13:55;;;;;;;;;;;;;;;26.21;60.59;98984.41;4470043;32;19977;-89
2022/09/14 10:16:21;;;;;;;;;;;;;;;26.40;60.60;98982.44;4468069;32;20234;-92
2022/09/14 10:18:47;;;;;;;;;;;;;;;26.40;60.61;98975.28;4455782;32;20001;-90
2022/09/14 10:21:13;;;;;;;;;;;;;;;26.17;60.60;98969.75;4469611;32;19989;-90
2022/09/14 10:23:38;;;;;;;;;;;;;;;26.22;60.59;98971.91;4455674;32;20003;-89
2022/09/14 10:26:12;;;;;;;;;;;;;;;26.31;60.61;98966.41;4468562;32;20293;-89
2022/09/14 10:28:38;;;;;;;;;;;;;;;26.49;60.62;98958.22;4468540;32;20395;-89
2022/09/14 10:31:07;;;;;;;;;;;;;;;26.76;60.63;98943.69;4468382;32;19989;-90
2022/09/14 10:33:33;;;;;;;;;;;;;;;26.94;60.63;98935.41;4468748;32;20042;-89
2022/09/14 10:35:58;;;;;;;;;;;;;;;26.98;60.64;98944.75;4467941;32;20405;-88
2022/09/14 10:38:31;;;;;;;;;;;;;;;27.13;60.65;98944.88;4469695;32;20254;-89
2022/09/14 10:41:02;;;;;;;;;;;;;;;27.31;60.65;98950.81;4454857;32;20029;-89
2022/09/14 10:43:35;;;;;;;;;;;;;;;27.31;60.65;98953.47;4455326;32;20349;-89
2022/09/14 10:46:01;;;;;;;;;;;;;;;27.31;60.65;98947.31;4456797;32;19977;-89
2022/09/14 10:48:29;;;;;;;;;;;;;;;27.34;60.65;98946.94;4456784;32;19993;-89
2022/09/14 10:50:55;;;;;;;;;;;;;;;27.32;60.65;98940.94;4457406;32;19997;-88
2022/09/14 10:53:23;;;;;;;;;;;;;;;27.52;60.67;98952.88;4470398;32;20012;-89
2022/09/14 10:56:15;;;;;;;;;;;;;;;27.60;60.68;98957.31;4471756;32;20032;-89
2022/09/14 10:58:40;;;;;;;;;;;;;;;27.45;60.66;98954.59;4468048;32;20333;-91
2022/09/14 11:01:12;;;;;;;;;;;;;;;27.73;60.68;98958.44;4470217;32;19988;-89
2022/09/14 11:03:40;;;;;;;;;;;;;;;27.64;60.67;98962.16;4471339;32;20033;-89
2022/09/14 11:06:06;;;;;;;;;;;;;;;27.77;60.68;98958.91;4457544;32;20048;-89
2022/09/14 11:08:34;;;;;;;;;;;;;;;27.81;60.69;98955.69;4471730;32;19977;-88
2022/09/14 11:11:18;;;;;;;;;;;;;;;28.05;60.69;98951.16;4470308;32;20403;-91
2022/09/14 11:14:09;;;;;;;;;;;;;;;27.93;60.69;98955.28;4471813;32;20089;-90
2022/09/14 11:16:53;;;;;;;;;;;;;;;27.96;60.69;98947.72;4456952;32;20290;-90
2022/09/14 11:19:22;;;;;;;;;;;;;;;27.83;60.69;98934.94;4470237;32;20015;-90
2022/09/14 11:21:47;;;;;;;;;;;;;;;27.77;60.68;98930.31;4470545;32;20001;-89
2022/09/14 11:24:31;;;;;;;;;;;;;;;27.76;60.68;98931.34;4469931;32;19976;-89
2022/09/14 11:27:06;;;;;;;;;;;;;;;27.84;60.69;98935.78;4470645;32;20483;-90
2022/09/14 11:29:32;;;;;;;;;;;;;;;27.68;60.68;98944.78;4477253;32;20011;-88
2022/09/14 11:31:57;;;;;;;;;;;;;;;27.64;60.67;98939.94;4470285;32;20048;-90
2022/09/14 11:34:37;;;;;;;;;;;;;;;27.60;60.68;98941.28;4471496;32;19977;-88
2022/09/14 11:37:03;;;;;;;;;;;;;;;27.74;60.67;98945.91;4469759;32;19963;-89
2022/09/14 11:39:29;;;;;;;;;;;;;;;27.78;60.68;98931.16;4470253;32;20352;-90
2022/09/14 11:42:06;;;;;;;;;;;;;;;27.82;60.69;98921.75;4469720;32;20041;-90
2022/09/14 11:44:35;;;;;;;;;;;;;;;27.94;60.69;98909.63;4469573;32;19981;-89
2022/09/14 11:47:02;;;;;;;;;;;;;;;28.00;60.69;98900.88;4456867;32;20306;-89
2022/09/14 11:49:40;;;;;;;;;;;;;;;27.90;60.68;98904.81;4470138;32;20048;-90
2022/09/14 11:52:18;;;;;;;;;;;;;;;28.05;60.69;98913.72;4470162;32;20001;-89
2022/09/14 11:54:43;;;;;;;;;;;;;;;28.11;60.70;98921.00;4469885;32;19972;-88
2022/09/14 11:57:11;;;;;;;;;;;;;;;28.25;60.71;98917.56;4456373;32;19991;-88
2022/09/14 11:59:39;;;;;;;;;;;;;;;28.33;60.71;98920.16;4469998;32;20007;-89
2022/09/14 12:02:23;;;;;;;;;;;;;;;28.27;60.70;98907.50;4469720;32;20023;-90
2022/09/14 12:05:04;;;;;;;;;;;;;;;28.41;60.71;98904.03;4471375;32;20033;-90
2022/09/14 12:07:54;;;;;;;;;;;;;;;28.20;60.70;98909.22;4469872;32;20292;-89
2022/09/14 12:10:19;;;;;;;;;;;;;;;28.36;60.71;98905.56;4456310;32;20007;-90
2022/09/14 12:12:51;;;;;;;;;;;;;;;28.35;60.71;98907.41;4470122;32;20337;-90
2022/09/14 12:15:25;;;;;;;;;;;;;;;28.62;60.73;98900.59;4470885;32;20028;-89
2022/09/14 12:18:05;;;;;;;;;;;;;;;28.83;60.73;98885.63;4469708;32;19981;-88
2022/09/14 12:20:39;;;;;;;;;;;;;;;28.87;60.74;98887.78;4469677;32;20000;-88
2022/09/14 12:23:37;;;;;;;;;;;;;;;29.05;60.75;98884.69;4469745;32;19993;-88
2022/09/14 12:26:18;;;;;;;;;;;;;;;29.20;60.76;98884.66;4452858;32;20373;-89
2022/09/14 12:28:47;;;;;;;;;;;;;;;29.36;60.76;98879.06;4469576;32;20290;-89
2022/09/14 12:31:27;;;;;;;;;;;;;;;29.29;60.75;98886.19;4469699;32;19988;-89
2022/09/14 12:34:11;;;;;;;;;;;;;;;29.31;60.75;98874.25;4469862;32;20394;-90
2022/09/14 12:36:37;;;;;;;;;;;;;;;29.36;60.76;98871.03;4469596;32;19997;-87
2022/09/14 12:39:08;;;;;;;;;;;;;;;29.52;60.77;98861.91;4469435;32;20332;-89
2022/09/14 12:41:33;;;;;;;;;;;;;;;29.42;60.76;98848.81;4468639;32;20032;-88
2022/09/14 12:43:59;;;;;;;;;;;;;;;29.42;60.76;98851.50;4469463;32;19980;-89
2022/09/14 12:46:32;;;;;;;;;;;;;;;29.43;60.76;98849.66;4455993;32;20314;-90
2022/09/14 12:49:02;;;;;;;;;;;;;;;29.32;60.75;98851.78;4469602;32;20307;-89
2022/09/14 12:51:31;;;;;;;;;;;;;;;29.58;60.78;98831.69;4456327;32;20371;-90
2022/09/14 12:53:59;;;;;;;;;;;;;;;29.71;60.79;98821.03;4470843;32;19995;-88